Time;durP1;ratioP1;P1;durP2;ratioP2;P2;SDS_P1;SDS_P2;PMS_P1;PMS_P2;Temp;Humidity;BMP_temperature;BMP_pressure;BME280_temperature;BME280_humidity;BME280_pressure;Samples;Min_cycle;Max_cycle;Signal;HPM_P1;HPM_P2
2024/01/18 00:01:08;;;;;;;53.78;26.58;;;1.10;99.90;;;;;;4987708;28;20031;-79
2024/01/18 00:03:39;;;;;;;52.92;24.83;;;1.10;99.90;;;;;;5006508;28;20042;-81
2024/01/18 00:06:06;;;;;;;52.47;27.25;;;1.10;99.90;;;;;;5009662;28;20037;-80
2024/01/18 00:08:31;;;;;;;50.88;27.77;;;1.10;99.90;;;;;;4998627;28;20022;-80
2024/01/18 00:10:57;;;;;;;47.33;24.20;;;1.10;99.90;;;;;;5008431;28;20437;-80
2024/01/18 00:13:23;;;;;;;85.60;44.35;;;1.10;99.90;;;;;;5004354;28;20062;-81
2024/01/18 00:15:49;;;;;;;82.88;42.80;;;1.10;99.90;;;;;;5004378;28;20055;-80
2024/01/18 00:18:15;;;;;;;101.28;48.13;;;1.10;99.90;;;;;;4992614;28;20030;-80
2024/01/18 00:20:41;;;;;;;103.53;52.38;;;1.00;99.90;;;;;;5004066;28;20202;-81
2024/01/18 00:23:06;;;;;;;97.45;43.85;;;1.00;99.90;;;;;;5010772;28;20069;-80
2024/01/18 00:25:32;;;;;;;73.10;35.78;;;1.00;99.90;;;;;;5009179;28;20026;-81
2024/01/18 00:27:57;;;;;;;55.30;29.77;;;1.00;99.90;;;;;;5004801;28;20021;-80
2024/01/18 00:30:23;;;;;;;53.00;27.77;;;1.00;99.90;;;;;;5010308;28;20147;-81
2024/01/18 00:32:49;;;;;;;48.42;25.25;;;0.90;99.90;;;;;;5002789;28;20014;-81
2024/01/18 00:35:14;;;;;;;47.20;25.33;;;1.00;99.90;;;;;;5010056;28;20482;-81
2024/01/18 00:37:40;;;;;;;51.25;25.60;;;1.00;99.90;;;;;;5002435;28;20033;-80
2024/01/18 00:40:06;;;;;;;58.30;24.50;;;1.00;99.90;;;;;;5010999;28;20117;-80
2024/01/18 00:42:32;;;;;;;47.88;23.23;;;1.10;99.90;;;;;;5013772;28;20386;-80
2024/01/18 00:44:58;;;;;;;47.38;24.25;;;1.10;99.90;;;;;;5014565;28;20038;-81
2024/01/18 00:47:23;;;;;;;47.22;22.70;;;1.10;99.90;;;;;;5018867;28;20025;-80
2024/01/18 00:49:49;;;;;;;53.58;25.17;;;1.10;99.90;;;;;;5013380;28;20029;-80
2024/01/18 00:52:15;;;;;;;50.50;25.80;;;1.20;99.90;;;;;;5008575;28;20037;-80
2024/01/18 00:54:40;;;;;;;49.08;26.80;;;1.20;99.90;;;;;;5001590;28;20592;-80
2024/01/18 00:57:06;;;;;;;49.10;25.35;;;1.10;99.90;;;;;;5022326;28;20017;-80
2024/01/18 00:59:31;;;;;;;50.22;26.55;;;1.20;99.90;;;;;;5016414;28;20040;-79
2024/01/18 01:01:57;;;;;;;58.30;29.13;;;1.20;99.90;;;;;;5022452;28;20108;-80
2024/01/18 01:04:23;;;;;;;66.50;34.63;;;1.10;99.90;;;;;;5002782;28;20046;-79
2024/01/18 01:06:48;;;;;;;60.00;31.67;;;1.10;99.90;;;;;;5001930;28;20048;-80
2024/01/18 01:09:14;;;;;;;72.82;35.00;;;1.10;99.90;;;;;;5007272;28;20025;-79
2024/01/18 01:11:40;;;;;;;225.18;89.50;;;1.10;99.90;;;;;;5008076;28;20117;-80
2024/01/18 01:14:06;;;;;;;125.95;53.17;;;1.10;99.90;;;;;;4998929;28;20030;-80
2024/01/18 01:16:31;;;;;;;117.30;50.78;;;1.10;99.90;;;;;;5003889;28;20030;-80
2024/01/18 01:18:57;;;;;;;86.80;39.78;;;1.10;99.90;;;;;;4993823;28;20026;-80
2024/01/18 01:21:22;;;;;;;74.38;33.97;;;1.10;99.90;;;;;;5011244;28;20053;-80
2024/01/18 01:23:51;;;;;;;73.32;35.85;;;1.20;99.90;;;;;;4993884;28;20027;-80
2024/01/18 01:26:17;;;;;;;75.38;34.70;;;1.20;99.90;;;;;;5007630;28;20043;-80
2024/01/18 01:28:43;;;;;;;66.68;33.38;;;1.20;99.90;;;;;;5004434;28;20049;-80
2024/01/18 01:31:08;;;;;;;66.15;30.25;;;1.20;99.90;;;;;;5012236;28;20026;-78
2024/01/18 01:33:35;;;;;;;59.70;30.33;;;1.30;99.90;;;;;;5008313;28;20025;-79
2024/01/18 01:36:02;;;;;;;45.22;22.25;;;1.30;99.90;;;;;;5033548;28;20058;-80
2024/01/18 01:38:28;;;;;;;49.78;26.77;;;1.40;99.90;;;;;;5016084;28;20030;-80
2024/01/18 01:40:54;;;;;;;48.35;23.90;;;1.40;99.90;;;;;;5020636;28;20041;-81
2024/01/18 01:43:20;;;;;;;41.97;21.33;;;1.50;99.90;;;;;;5018330;28;20033;-80
2024/01/18 01:45:45;;;;;;;41.78;21.48;;;1.50;99.90;;;;;;5015064;28;20396;-80
2024/01/18 01:48:12;;;;;;;35.78;19.25;;;1.60;99.90;;;;;;5029407;28;20029;-79
2024/01/18 01:50:38;;;;;;;36.30;20.60;;;1.70;99.90;;;;;;5015045;28;20029;-80
2024/01/18 01:53:06;;;;;;;39.63;20.50;;;1.80;99.90;;;;;;5028322;28;20024;-78
2024/01/18 01:55:32;;;;;;;37.22;20.27;;;1.80;99.90;;;;;;5031535;28;20021;-78
2024/01/18 01:57:59;;;;;;;36.78;20.65;;;1.80;99.90;;;;;;5030589;28;20022;-80
2024/01/18 02:00:25;;;;;;;45.80;22.98;;;1.70;99.90;;;;;;5017474;28;20026;-78
2024/01/18 02:02:51;;;;;;;49.50;25.10;;;1.70;99.90;;;;;;5016363;28;20376;-78
2024/01/18 02:05:19;;;;;;;66.32;28.95;;;1.60;99.90;;;;;;5014125;28;20038;-79
2024/01/18 02:07:45;;;;;;;63.47;30.27;;;1.50;99.90;;;;;;5013743;28;20018;-79
2024/01/18 02:10:12;;;;;;;70.78;32.60;;;1.50;99.90;;;;;;5015347;28;20029;-80
2024/01/18 02:12:38;;;;;;;93.88;45.88;;;1.40;99.90;;;;;;5029258;28;20049;-80
2024/01/18 02:15:05;;;;;;;93.03;45.15;;;1.30;99.90;;;;;;5024592;28;20021;-79
2024/01/18 02:17:31;;;;;;;78.82;35.95;;;1.20;99.90;;;;;;5020254;28;20030;-78
2024/01/18 02:19:56;;;;;;;13.27;9.55;;;1.10;99.90;;;;;;5018256;28;20475;-78
2024/01/18 02:22:26;;;;;;;50.35;23.05;;;1.20;99.90;;;;;;5012372;28;20042;-78
2024/01/18 02:24:57;;;;;;;46.60;22.92;;;1.30;99.90;;;;;;5020771;28;20018;-78
2024/01/18 02:27:23;;;;;;;38.95;20.38;;;1.30;99.90;;;;;;5016838;28;20026;-78
2024/01/18 02:29:49;;;;;;;36.58;20.90;;;1.40;99.90;;;;;;5017776;28;20026;-78
2024/01/18 02:32:14;;;;;;;37.67;22.27;;;1.50;99.90;;;;;;5014352;28;20018;-77
2024/01/18 02:34:40;;;;;;;43.47;23.88;;;1.50;99.90;;;;;;5012396;28;20029;-79
2024/01/18 02:37:07;;;;;;;47.50;24.45;;;1.50;99.90;;;;;;5022263;28;20074;-80
2024/01/18 02:39:33;;;;;;;55.00;29.50;;;1.50;99.90;;;;;;5027727;28;20026;-79
2024/01/18 02:42:00;;;;;;;46.05;25.00;;;1.50;99.90;;;;;;5017951;28;20038;-79
2024/01/18 02:44:27;;;;;;;43.78;23.75;;;1.50;99.90;;;;;;5028880;28;20368;-80
2024/01/18 02:46:52;;;;;;;42.05;22.88;;;1.60;99.90;;;;;;5026277;28;20018;-80
2024/01/18 02:49:18;;;;;;;43.50;24.60;;;1.60;99.90;;;;;;5022648;28;20032;-81
2024/01/18 02:51:44;;;;;;;42.33;22.40;;;1.60;99.90;;;;;;5015820;28;20429;-78
2024/01/18 02:54:10;;;;;;;41.30;24.05;;;1.60;99.90;;;;;;5013469;28;20059;-80
2024/01/18 02:56:37;;;;;;;43.05;23.73;;;1.60;99.90;;;;;;5020793;28;20122;-80
2024/01/18 02:59:03;;;;;;;42.22;23.17;;;1.60;99.90;;;;;;5017479;28;20029;-79
2024/01/18 03:01:30;;;;;;;41.45;22.13;;;1.70;99.90;;;;;;5011313;28;20033;-79
2024/01/18 03:03:56;;;;;;;39.38;22.25;;;1.70;99.90;;;;;;5019818;28;20037;-80
2024/01/18 03:06:22;;;;;;;41.42;22.15;;;1.70;99.90;;;;;;5020528;28;20501;-79
2024/01/18 03:08:48;;;;;;;37.88;23.70;;;1.70;99.90;;;;;;5028984;28;20018;-79
2024/01/18 03:11:14;;;;;;;39.28;21.90;;;1.70;99.90;;;;;;5030344;28;20364;-80
2024/01/18 03:13:40;;;;;;;41.70;21.27;;;1.70;99.90;;;;;;5028840;28;20021;-79
2024/01/18 03:16:06;;;;;;;37.83;21.80;;;1.70;99.90;;;;;;5025206;28;20133;-79
2024/01/18 03:18:34;;;;;;;43.55;22.65;;;1.70;99.90;;;;;;5023360;28;20388;-79
2024/01/18 03:21:00;;;;;;;37.58;22.67;;;1.70;99.90;;;;;;5009670;28;20057;-80
2024/01/18 03:23:26;;;;;;;43.80;25.98;;;1.70;99.90;;;;;;5015399;28;20048;-80
2024/01/18 03:25:51;;;;;;;47.45;25.83;;;1.60;99.90;;;;;;5017196;28;20487;-80
2024/01/18 03:28:17;;;;;;;48.97;27.52;;;1.60;99.90;;;;;;5016218;28;20428;-79
2024/01/18 03:30:43;;;;;;;42.40;25.27;;;1.60;99.90;;;;;;5017118;28;20375;-79
2024/01/18 03:33:08;;;;;;;38.50;20.83;;;1.60;99.90;;;;;;5023149;28;20053;-80
2024/01/18 03:35:34;;;;;;;36.25;20.23;;;1.50;99.90;;;;;;5019758;28;20014;-79
2024/01/18 03:37:59;;;;;;;35.17;22.08;;;1.60;99.90;;;;;;5028628;28;20021;-79
2024/01/18 03:40:25;;;;;;;37.10;19.73;;;1.60;99.90;;;;;;5028713;28;20028;-79
2024/01/18 03:42:51;;;;;;;38.03;20.73;;;1.60;99.90;;;;;;5014630;28;20028;-79
2024/01/18 03:45:17;;;;;;;33.95;19.30;;;1.50;99.90;;;;;;5020605;28;20410;-79
2024/01/18 03:47:42;;;;;;;37.88;21.42;;;1.50;99.90;;;;;;5023020;28;20024;-79
2024/01/18 03:50:08;;;;;;;41.95;24.30;;;1.50;99.90;;;;;;5021005;28;20022;-79
2024/01/18 03:52:34;;;;;;;35.72;20.70;;;1.50;99.90;;;;;;5023378;28;20029;-79
2024/01/18 03:55:00;;;;;;;35.75;19.73;;;1.50;99.90;;;;;;5019820;28;20018;-79
2024/01/18 03:57:26;;;;;;;36.65;22.58;;;1.50;99.90;;;;;;5024466;28;20030;-81
2024/01/18 03:59:51;;;;;;;38.63;22.67;;;1.50;99.90;;;;;;5019993;28;20033;-79
2024/01/18 04:02:17;;;;;;;47.50;24.08;;;1.50;99.90;;;;;;5026144;28;20038;-80
2024/01/18 04:04:43;;;;;;;37.95;22.83;;;1.40;99.90;;;;;;5029629;28;20037;-80
2024/01/18 04:07:08;;;;;;;43.60;23.73;;;1.40;99.90;;;;;;5010115;28;20044;-79
2024/01/18 04:09:34;;;;;;;38.05;21.40;;;1.40;99.90;;;;;;5013741;28;20029;-80
2024/01/18 04:11:59;;;;;;;35.40;21.10;;;1.40;99.90;;;;;;5019390;28;20025;-79
2024/01/18 04:14:25;;;;;;;40.88;19.92;;;1.40;99.90;;;;;;5015622;28;20535;-78
2024/01/18 04:16:51;;;;;;;34.90;20.80;;;1.30;99.90;;;;;;5020798;28;20394;-81
2024/01/18 04:19:16;;;;;;;39.72;21.75;;;1.40;99.90;;;;;;5026771;28;20033;-81
2024/01/18 04:21:43;;;;;;;32.33;19.63;;;1.40;99.90;;;;;;5020690;28;20523;-79
2024/01/18 04:24:10;;;;;;;32.75;18.35;;;1.50;99.90;;;;;;5017182;28;20015;-79
2024/01/18 04:26:36;;;;;;;33.67;20.30;;;1.40;99.90;;;;;;5016918;28;20018;-79
2024/01/18 04:29:01;;;;;;;34.80;18.52;;;1.50;99.90;;;;;;5022825;28;20018;-79
2024/01/18 04:31:27;;;;;;;41.30;25.52;;;1.50;99.90;;;;;;5018635;28;20022;-79
2024/01/18 04:33:54;;;;;;;50.03;28.50;;;1.50;99.90;;;;;;5016663;28;20018;-81
2024/01/18 04:36:20;;;;;;;45.38;23.85;;;1.50;99.90;;;;;;5017884;28;20163;-78
2024/01/18 04:38:46;;;;;;;37.75;22.33;;;1.50;99.90;;;;;;5024387;28;20059;-80
2024/01/18 04:41:11;;;;;;;40.40;21.50;;;1.40;99.90;;;;;;5019092;28;20101;-79
2024/01/18 04:43:37;;;;;;;40.53;21.98;;;1.40;99.90;;;;;;5021115;28;20041;-81
2024/01/18 04:46:04;;;;;;;45.70;25.58;;;1.40;99.90;;;;;;5028654;28;20037;-79
2024/01/18 04:48:30;;;;;;;46.63;27.92;;;1.50;99.90;;;;;;5028079;28;20033;-81
2024/01/18 04:50:57;;;;;;;47.60;26.65;;;1.50;99.90;;;;;;5028671;28;20014;-79
2024/01/18 04:53:23;;;;;;;49.67;28.30;;;1.50;99.90;;;;;;5029250;28;20030;-80
2024/01/18 04:55:49;;;;;;;46.95;24.60;;;1.50;99.90;;;;;;5028224;28;20029;-80
2024/01/18 04:58:15;;;;;;;40.08;23.10;;;1.50;99.90;;;;;;5026852;28;20026;-79
2024/01/18 05:00:41;;;;;;;47.95;25.95;;;1.50;99.90;;;;;;5011642;28;20061;-80
2024/01/18 05:03:07;;;;;;;50.72;27.13;;;1.60;99.90;;;;;;5015928;28;20049;-79
2024/01/18 05:05:33;;;;;;;53.47;26.48;;;1.60;99.90;;;;;;5014992;28;20042;-80
2024/01/18 05:07:58;;;;;;;57.10;27.17;;;1.60;99.90;;;;;;5016182;28;20087;-80
2024/01/18 05:10:24;;;;;;;56.53;29.60;;;1.60;99.90;;;;;;5016537;28;20116;-79
2024/01/18 05:12:51;;;;;;;64.05;31.77;;;1.70;99.90;;;;;;5016865;28;20041;-79
2024/01/18 05:15:18;;;;;;;72.88;36.95;;;1.60;99.90;;;;;;5021031;28;20029;-80
2024/01/18 05:17:46;;;;;;;57.72;29.38;;;1.70;99.90;;;;;;5009142;28;20026;-79
2024/01/18 05:20:13;;;;;;;63.83;31.73;;;1.70;99.90;;;;;;5006959;28;20020;-79
2024/01/18 05:22:38;;;;;;;46.88;24.08;;;1.60;99.90;;;;;;5016458;28;20049;-81
2024/01/18 05:25:05;;;;;;;51.30;26.23;;;1.60;99.90;;;;;;5023325;28;20057;-79
2024/01/18 05:27:30;;;;;;;63.45;28.95;;;1.50;99.90;;;;;;5013586;28;20081;-79
2024/01/18 05:29:57;;;;;;;55.28;27.65;;;1.60;99.90;;;;;;5021069;28;20410;-79
2024/01/18 05:32:23;;;;;;;49.88;28.08;;;1.60;99.90;;;;;;5025319;28;20025;-80
2024/01/18 05:34:49;;;;;;;51.70;27.20;;;1.60;99.90;;;;;;5019002;28;20022;-79
2024/01/18 05:37:16;;;;;;;46.70;27.23;;;1.60;99.90;;;;;;5015197;28;20045;-79
2024/01/18 05:39:42;;;;;;;55.03;28.67;;;1.60;99.90;;;;;;5014111;28;20029;-79
2024/01/18 05:42:08;;;;;;;45.05;25.40;;;1.60;99.90;;;;;;5016248;28;20403;-80
2024/01/18 05:44:34;;;;;;;38.92;22.33;;;1.70;99.90;;;;;;5014363;28;20022;-79
2024/01/18 05:47:00;;;;;;;47.65;24.75;;;1.70;99.90;;;;;;5025557;28;20032;-79
2024/01/18 05:49:25;;;;;;;44.88;23.92;;;1.70;99.90;;;;;;5023731;28;20014;-79
2024/01/18 05:51:51;;;;;;;43.92;21.25;;;1.70;99.90;;;;;;5014770;28;20048;-79
2024/01/18 05:54:17;;;;;;;45.80;24.63;;;1.80;99.90;;;;;;5022593;28;20025;-80
2024/01/18 05:56:46;;;;;;;39.33;21.45;;;1.80;99.90;;;;;;5022912;28;20463;-79
2024/01/18 05:59:11;;;;;;;45.90;22.85;;;1.80;99.90;;;;;;5017833;28;20048;-80
2024/01/18 06:01:37;;;;;;;40.72;23.25;;;1.80;99.90;;;;;;5026072;28;20061;-79
2024/01/18 06:04:03;;;;;;;41.20;20.90;;;1.70;99.90;;;;;;5028129;28;20065;-80
2024/01/18 06:06:29;;;;;;;46.53;25.25;;;1.70;99.90;;;;;;5027328;28;20045;-78
2024/01/18 06:08:54;;;;;;;47.65;21.65;;;1.70;99.90;;;;;;5017852;28;20026;-79
2024/01/18 06:11:20;;;;;;;33.95;19.75;;;1.70;99.90;;;;;;5016500;28;20467;-79
2024/01/18 06:13:46;;;;;;;43.85;20.48;;;1.70;99.90;;;;;;5014449;28;20471;-79
2024/01/18 06:16:11;;;;;;;48.70;23.75;;;1.70;99.90;;;;;;5013225;28;20047;-79
2024/01/18 06:18:38;;;;;;;43.40;22.63;;;1.80;99.90;;;;;;5013099;28;20022;-81
2024/01/18 06:21:12;;;;;;;47.15;23.17;;;1.80;99.90;;;;;;5015840;28;20037;-80
2024/01/18 06:23:42;;;;;;;60.10;26.30;;;1.80;99.90;;;;;;5012276;28;20086;-80
2024/01/18 06:26:10;;;;;;;56.33;25.73;;;1.90;99.90;;;;;;5013697;28;20414;-80
2024/01/18 06:28:36;;;;;;;49.35;24.65;;;1.90;99.90;;;;;;5011656;28;20498;-78
2024/01/18 06:31:02;;;;;;;44.22;22.52;;;2.00;99.90;;;;;;5020636;28;20021;-78
2024/01/18 06:33:28;;;;;;;47.05;22.35;;;2.00;99.90;;;;;;5014614;28;20491;-78
2024/01/18 06:35:53;;;;;;;54.20;26.15;;;2.10;99.90;;;;;;5017856;28;20050;-78
2024/01/18 06:38:22;;;;;;;55.30;24.67;;;2.20;99.90;;;;;;5026871;28;20018;-78
2024/01/18 06:40:48;;;;;;;44.40;22.35;;;2.20;99.90;;;;;;5015330;28;20123;-79
2024/01/18 06:43:15;;;;;;;47.83;23.63;;;2.20;99.90;;;;;;5009835;28;20018;-79
2024/01/18 06:45:40;;;;;;;54.95;23.67;;;2.20;99.90;;;;;;5017403;28;20036;-79
2024/01/18 06:48:06;;;;;;;59.92;26.25;;;2.20;99.90;;;;;;5020409;28;20025;-79
2024/01/18 06:50:32;;;;;;;61.97;28.70;;;2.10;99.90;;;;;;5016827;28;20029;-78
2024/01/18 06:52:59;;;;;;;70.72;30.65;;;2.20;99.90;;;;;;5015317;28;20033;-78
2024/01/18 06:55:25;;;;;;;63.97;32.05;;;2.20;99.90;;;;;;5014688;28;20116;-79
2024/01/18 06:57:51;;;;;;;72.72;34.25;;;2.20;99.90;;;;;;5009563;28;20498;-79
2024/01/18 07:00:23;;;;;;;79.20;34.20;;;2.20;99.90;;;;;;5018505;28;20030;-79
2024/01/18 07:02:50;;;;;;;92.40;36.63;;;2.20;99.90;;;;;;5012260;28;20034;-79
2024/01/18 07:05:20;;;;;;;65.75;30.30;;;2.10;99.90;;;;;;5008975;28;20504;-77
2024/01/18 07:07:46;;;;;;;95.85;36.08;;;2.20;99.90;;;;;;5008859;28;20034;-78
2024/01/18 07:10:11;;;;;;;65.78;28.70;;;2.20;99.90;;;;;;5016029;28;20026;-79
2024/01/18 07:12:37;;;;;;;53.20;25.10;;;2.20;99.90;;;;;;5012562;28;20496;-78
2024/01/18 07:15:03;;;;;;;51.38;25.77;;;2.30;99.90;;;;;;5010015;28;20026;-79
2024/01/18 07:17:29;;;;;;;64.97;30.52;;;2.30;99.90;;;;;;5007417;28;20037;-78
2024/01/18 07:19:56;;;;;;;54.88;27.42;;;2.40;99.90;;;;;;5006862;28;20022;-81
2024/01/18 07:22:22;;;;;;;62.55;28.73;;;2.40;99.90;;;;;;5007253;28;20068;-79
2024/01/18 07:24:49;;;;;;;72.72;35.38;;;2.40;99.90;;;;;;5007869;28;20044;-82
2024/01/18 07:27:15;;;;;;;75.85;34.92;;;2.40;99.90;;;;;;5008936;28;20073;-83
2024/01/18 07:29:41;;;;;;;74.30;33.22;;;2.40;99.90;;;;;;4999976;28;20065;-81
2024/01/18 07:32:06;;;;;;;97.05;42.03;;;2.50;99.90;;;;;;5008656;28;20021;-78
2024/01/18 07:34:33;;;;;;;112.45;44.95;;;2.40;99.90;;;;;;5020217;28;20021;-75
2024/01/18 07:36:59;;;;;;;127.90;48.30;;;2.40;99.90;;;;;;5009042;28;20056;-79
2024/01/18 07:39:24;;;;;;;114.82;47.95;;;2.40;99.90;;;;;;5014231;28;20069;-78
2024/01/18 07:41:50;;;;;;;115.03;47.92;;;2.40;99.90;;;;;;5006969;28;20038;-78
2024/01/18 07:44:16;;;;;;;88.40;43.10;;;2.40;99.90;;;;;;5008331;28;20030;-79
2024/01/18 07:46:41;;;;;;;186.30;65.32;;;2.40;99.90;;;;;;5007798;28;20053;-79
2024/01/18 07:49:07;;;;;;;155.65;63.05;;;2.40;99.90;;;;;;5007733;28;20030;-77
2024/01/18 07:51:33;;;;;;;116.93;46.75;;;2.40;99.90;;;;;;5009130;28;20026;-78
2024/01/18 07:53:58;;;;;;;80.75;38.22;;;2.40;99.90;;;;;;5016046;28;20018;-78
2024/01/18 07:56:24;;;;;;;104.15;47.15;;;2.50;99.90;;;;;;5022738;28;20026;-78
2024/01/18 07:58:50;;;;;;;105.72;47.03;;;2.60;99.90;;;;;;5020697;28;20078;-78
2024/01/18 08:01:19;;;;;;;125.63;54.38;;;2.60;99.90;;;;;;5019859;28;20041;-78
2024/01/18 08:03:45;;;;;;;105.93;46.00;;;2.60;99.90;;;;;;5026335;28;20533;-79
2024/01/18 08:06:11;;;;;;;172.13;67.38;;;2.70;99.90;;;;;;5037964;28;20028;-78
2024/01/18 08:08:38;;;;;;;86.95;40.88;;;2.60;99.90;;;;;;5029761;28;20022;-78
2024/01/18 08:11:03;;;;;;;97.82;44.75;;;2.60;99.90;;;;;;5011808;28;20021;-78
2024/01/18 08:13:29;;;;;;;87.20;40.58;;;2.60;99.90;;;;;;5023703;28;20385;-78
2024/01/18 08:15:57;;;;;;;268.77;114.55;;;2.60;99.90;;;;;;5015148;28;20021;-78
2024/01/18 08:18:23;;;;;;;143.63;65.80;;;2.60;99.90;;;;;;5012258;28;20036;-78
2024/01/18 08:20:50;;;;;;;139.80;62.47;;;2.60;99.90;;;;;;5015830;28;20045;-78
2024/01/18 08:23:17;;;;;;;87.60;39.13;;;2.70;99.90;;;;;;5019582;28;20022;-78
2024/01/18 08:25:42;;;;;;;168.75;75.05;;;2.70;99.90;;;;;;5008294;28;20031;-77
2024/01/18 08:28:10;;;;;;;95.20;42.15;;;2.60;99.90;;;;;;5017986;28;20018;-76
2024/01/18 08:30:36;;;;;;;85.20;39.90;;;2.60;99.90;;;;;;5002609;28;20034;-76
2024/01/18 08:33:02;;;;;;;94.00;47.00;;;2.60;99.90;;;;;;5008952;28;20029;-76
2024/01/18 08:35:28;;;;;;;84.90;39.83;;;2.60;99.90;;;;;;5011226;28;20022;-76
2024/01/18 08:37:54;;;;;;;77.22;37.17;;;2.60;99.90;;;;;;5010183;28;20041;-76
2024/01/18 08:40:19;;;;;;;201.23;76.25;;;2.60;99.90;;;;;;5013992;28;20032;-77
2024/01/18 08:42:46;;;;;;;253.13;94.93;;;2.60;99.90;;;;;;5008597;28;20116;-76
2024/01/18 08:45:12;;;;;;;280.80;116.18;;;2.60;99.90;;;;;;5015980;28;20101;-77
2024/01/18 08:47:39;;;;;;;258.83;108.78;;;2.60;99.90;;;;;;5010183;28;20422;-77
2024/01/18 08:50:05;;;;;;;557.63;235.43;;;2.50;99.90;;;;;;5008189;28;20026;-75
2024/01/18 08:52:31;;;;;;;553.72;233.27;;;2.50;99.90;;;;;;5007331;28;20129;-77
2024/01/18 08:54:57;;;;;;;358.58;129.95;;;2.50;99.90;;;;;;5007975;28;20436;-77
2024/01/18 08:57:22;;;;;;;197.32;82.85;;;2.50;99.90;;;;;;5017188;28;20021;-77
2024/01/18 08:59:48;;;;;;;183.90;80.38;;;2.50;99.90;;;;;;5013604;28;20050;-77
2024/01/18 09:02:14;;;;;;;211.48;88.95;;;2.50;99.90;;;;;;5017369;28;20479;-77
2024/01/18 09:04:40;;;;;;;261.88;119.47;;;2.50;99.90;;;;;;5018098;28;20066;-77
2024/01/18 09:07:06;;;;;;;232.85;113.93;;;2.40;99.90;;;;;;5025187;28;20048;-77
2024/01/18 09:09:31;;;;;;;230.07;111.75;;;2.40;99.90;;;;;;5023969;28;20025;-77
2024/01/18 09:11:57;;;;;;;207.68;86.32;;;2.40;99.90;;;;;;5028394;28;20049;-78
2024/01/18 09:14:23;;;;;;;162.63;73.10;;;2.40;99.90;;;;;;5022961;28;20022;-76
2024/01/18 09:16:49;;;;;;;199.85;80.05;;;2.40;99.90;;;;;;5026342;28;20017;-76
2024/01/18 09:19:15;;;;;;;235.43;96.25;;;2.40;99.90;;;;;;5023697;28;20522;-78
2024/01/18 09:21:41;;;;;;;154.43;65.97;;;2.40;99.90;;;;;;5027519;28;20041;-77
2024/01/18 09:24:07;;;;;;;157.13;79.35;;;2.40;99.90;;;;;;5021895;28;20102;-78
2024/01/18 09:26:33;;;;;;;108.65;53.97;;;2.40;99.90;;;;;;5028549;28;20097;-76
2024/01/18 09:28:59;;;;;;;154.07;70.68;;;2.30;99.90;;;;;;5026883;28;20025;-77
2024/01/18 09:31:24;;;;;;;133.57;65.40;;;2.30;99.90;;;;;;5029849;28;20034;-78
2024/01/18 09:33:50;;;;;;;105.65;51.63;;;2.20;99.90;;;;;;5027246;27;20498;-77
2024/01/18 09:36:16;;;;;;;99.90;42.58;;;2.20;99.90;;;;;;5025188;28;20054;-78
2024/01/18 09:38:42;;;;;;;198.80;80.25;;;2.20;99.90;;;;;;5015731;28;20391;-79
2024/01/18 09:41:07;;;;;;;118.90;49.03;;;2.10;99.90;;;;;;5020546;28;20120;-77
2024/01/18 09:43:38;;;;;;;110.15;45.05;;;2.20;99.90;;;;;;5023433;28;20040;-78
2024/01/18 09:46:09;;;;;;;97.10;36.80;;;2.10;99.90;;;;;;5031694;28;20014;-79
2024/01/18 09:48:35;;;;;;;99.15;33.58;;;2.10;99.90;;;;;;5031733;28;20067;-77
2024/01/18 09:51:02;;;;;;;119.97;52.33;;;2.10;99.90;;;;;;5029281;28;20072;-77
2024/01/18 09:53:28;;;;;;;140.57;58.00;;;2.10;99.90;;;;;;5030279;28;20380;-78
2024/01/18 09:55:59;;;;;;;176.85;82.13;;;2.10;99.90;;;;;;5027656;28;20017;-77
2024/01/18 09:58:25;;;;;;;216.02;71.13;;;2.10;99.90;;;;;;5024272;28;20041;-77
2024/01/18 10:01:00;;;;;;;158.75;70.50;;;2.10;99.90;;;;;;5026282;28;20025;-76
2024/01/18 10:03:26;;;;;;;133.80;59.17;;;2.20;99.90;;;;;;5022341;28;20105;-78
2024/01/18 10:05:51;;;;;;;118.95;66.32;;;2.10;99.90;;;;;;5027613;28;20128;-77
2024/01/18 10:08:17;;;;;;;68.15;34.65;;;2.10;99.90;;;;;;5018544;28;20475;-78
2024/01/18 10:10:43;;;;;;;61.67;34.15;;;2.10;99.90;;;;;;5022732;28;20484;-78
2024/01/18 10:13:16;;;;;;;39.70;22.17;;;2.10;99.90;;;;;;5017140;28;20049;-77
2024/01/18 10:15:42;;;;;;;45.45;21.23;;;2.00;99.90;;;;;;5021862;28;20041;-79
2024/01/18 10:18:08;;;;;;;29.70;15.38;;;2.00;99.90;;;;;;5018922;28;20018;-77
2024/01/18 10:20:34;;;;;;;29.73;16.48;;;2.10;99.90;;;;;;5021096;28;20022;-77
2024/01/18 10:23:00;;;;;;;29.35;16.73;;;2.00;99.90;;;;;;5019127;28;20029;-76
2024/01/18 10:25:26;;;;;;;38.30;18.42;;;2.00;99.90;;;;;;5020760;28;20044;-78
2024/01/18 10:27:53;;;;;;;41.78;20.70;;;2.00;99.90;;;;;;5018958;28;20454;-77
2024/01/18 10:30:19;;;;;;;41.33;18.92;;;2.00;99.90;;;;;;5020120;28;20018;-79
2024/01/18 10:32:45;;;;;;;41.00;20.40;;;2.00;99.90;;;;;;5019031;28;20022;-79
2024/01/18 10:35:29;;;;;;;39.47;19.75;;;2.00;99.90;;;;;;5019560;28;20453;-78
2024/01/18 10:38:03;;;;;;;40.92;20.20;;;2.00;99.90;;;;;;5021637;28;20060;-77
2024/01/18 10:40:31;;;;;;;46.60;26.23;;;2.00;99.90;;;;;;5016139;28;20022;-77
2024/01/18 10:42:57;;;;;;;43.13;21.17;;;2.10;99.90;;;;;;5015186;28;20029;-77
2024/01/18 10:45:26;;;;;;;47.67;22.60;;;2.10;99.90;;;;;;5030849;28;20028;-78
2024/01/18 10:47:55;;;;;;;36.97;19.67;;;2.10;99.90;;;;;;5029289;28;20104;-78
2024/01/18 10:50:21;;;;;;;40.17;20.48;;;2.10;99.90;;;;;;5030221;28;20029;-76
2024/01/18 10:52:48;;;;;;;31.80;16.95;;;2.00;99.90;;;;;;5013574;28;20014;-76
2024/01/18 10:55:13;;;;;;;30.83;16.45;;;1.90;99.90;;;;;;5023885;28;20033;-78
2024/01/18 10:57:40;;;;;;;44.42;24.60;;;1.90;99.90;;;;;;5003840;28;20018;-77
2024/01/18 11:00:06;;;;;;;28.38;14.32;;;1.80;99.90;;;;;;5017414;28;20027;-80
2024/01/18 11:02:40;;;;;;;26.45;14.32;;;1.80;99.90;;;;;;5024345;28;20044;-77
2024/01/18 11:05:09;;;;;;;31.35;17.17;;;1.80;99.90;;;;;;5012321;28;20080;-76
2024/01/18 11:07:37;;;;;;;38.08;19.42;;;1.80;99.90;;;;;;5020860;28;20117;-76
2024/01/18 11:10:11;;;;;;;30.35;18.45;;;1.80;99.90;;;;;;5009504;28;20026;-77
2024/01/18 11:12:45;;;;;;;28.35;15.40;;;1.80;99.90;;;;;;5011318;28;20091;-78
2024/01/18 11:15:13;;;;;;;31.73;15.98;;;1.90;99.90;;;;;;5021534;28;20056;-77
2024/01/18 11:17:46;;;;;;;29.58;14.93;;;1.80;99.90;;;;;;5030546;28;20017;-77
2024/01/18 11:20:13;;;;;;;25.27;14.07;;;1.90;99.90;;;;;;5024213;28;20509;-78
2024/01/18 11:22:39;;;;;;;28.05;14.60;;;1.90;99.90;;;;;;5021454;28;20101;-78
2024/01/18 11:25:07;;;;;;;23.70;12.98;;;1.90;99.90;;;;;;5027204;28;20017;-78
2024/01/18 11:27:40;;;;;;;20.48;12.43;;;1.90;99.90;;;;;;5013337;28;20034;-76
2024/01/18 11:30:36;;;;;;;40.70;24.98;;;1.80;99.90;;;;;;4996617;28;20112;-77
2024/01/18 11:33:02;;;;;;;36.33;21.92;;;1.80;99.90;;;;;;5012738;28;20037;-77
2024/01/18 11:35:29;;;;;;;27.35;14.73;;;1.80;99.90;;;;;;4990128;28;20033;-78
2024/01/18 11:38:21;;;;;;;41.60;19.83;;;1.80;99.90;;;;;;5012786;28;20106;-76
2024/01/18 11:40:50;;;;;;;54.83;26.42;;;1.80;99.90;;;;;;5015492;28;20042;-77
2024/01/18 11:43:17;;;;;;;71.15;41.40;;;1.80;99.90;;;;;;5000745;28;20030;-78
2024/01/18 11:45:46;;;;;;;81.35;45.17;;;1.70;99.90;;;;;;5006891;28;20033;-79
2024/01/18 11:48:13;;;;;;;144.93;77.75;;;1.60;99.90;;;;;;5008056;28;20032;-80
2024/01/18 11:50:39;;;;;;;194.43;103.72;;;1.60;99.90;;;;;;5007818;28;20026;-77
2024/01/18 11:53:08;;;;;;;103.07;58.45;;;1.60;99.90;;;;;;5012591;28;20037;-76
2024/01/18 11:55:41;;;;;;;84.05;50.50;;;1.50;99.90;;;;;;5007847;28;20034;-77
2024/01/18 11:58:08;;;;;;;47.80;28.75;;;1.50;99.90;;;;;;5017849;28;20073;-77
2024/01/18 12:00:35;;;;;;;43.00;25.27;;;1.50;99.90;;;;;;5022562;28;20041;-77
2024/01/18 12:03:03;;;;;;;46.08;24.35;;;1.40;99.90;;;;;;5008858;28;20061;-77
2024/01/18 12:05:29;;;;;;;87.72;42.30;;;1.50;99.90;;;;;;4994713;28;20420;-80
2024/01/18 12:07:56;;;;;;;80.82;43.40;;;1.50;99.90;;;;;;4989622;28;20027;-77
2024/01/18 12:10:22;;;;;;;76.07;40.08;;;1.50;99.90;;;;;;4986364;28;20130;-77
2024/01/18 12:12:49;;;;;;;41.17;23.52;;;1.60;99.90;;;;;;4994346;28;20038;-80
2024/01/18 12:15:18;;;;;;;90.88;43.75;;;1.60;99.90;;;;;;4989400;28;20027;-79
2024/01/18 12:17:44;;;;;;;198.02;97.63;;;1.50;99.90;;;;;;4988365;28;20022;-79
2024/01/18 12:20:14;;;;;;;107.55;57.53;;;1.60;99.90;;;;;;4990001;28;20112;-79
2024/01/18 12:22:40;;;;;;;65.78;34.42;;;1.60;99.90;;;;;;4994490;28;20027;-79
2024/01/18 12:25:07;;;;;;;34.50;21.48;;;1.60;99.90;;;;;;4989162;28;20109;-79
2024/01/18 12:27:32;;;;;;;112.68;57.63;;;1.60;99.90;;;;;;4994587;28;20037;-79
2024/01/18 12:29:58;;;;;;;41.63;22.90;;;1.60;99.90;;;;;;4989515;28;20035;-77
2024/01/18 12:32:24;;;;;;;31.60;16.40;;;1.60;99.90;;;;;;4987442;28;20026;-79